sensor_id;sensor_type;location;lat;lon;timestamp;pressure;altitude;pressure_sealevel;temperature;humidity
42385;BME280;28042;43.986;22.860;2022-08-02T00:01:20;100838.88;;;19.82;62.09
42385;BME280;28042;43.986;22.860;2022-08-02T00:03:45;100831.31;;;19.77;62.80
42385;BME280;28042;43.986;22.860;2022-08-02T00:06:11;100839.47;;;19.67;63.41
42385;BME280;28042;43.986;22.860;2022-08-02T00:08:36;100838.63;;;19.67;63.29
42385;BME280;28042;43.986;22.860;2022-08-02T00:11:02;100837.38;;;19.74;61.96
42385;BME280;28042;43.986;22.860;2022-08-02T00:13:27;100837.84;;;19.71;61.96
42385;BME280;28042;43.986;22.860;2022-08-02T00:15:52;100833.16;;;19.72;61.96
42385;BME280;28042;43.986;22.860;2022-08-02T00:18:18;100846.50;;;19.75;62.18
42385;BME280;28042;43.986;22.860;2022-08-02T00:20:43;100846.78;;;19.73;61.93
42385;BME280;28042;43.986;22.860;2022-08-02T00:23:08;100839.22;;;19.69;62.30
42385;BME280;28042;43.986;22.860;2022-08-02T00:25:34;100837.53;;;19.68;62.25
42385;BME280;28042;43.986;22.860;2022-08-02T00:27:59;100842.50;;;19.66;62.43
42385;BME280;28042;43.986;22.860;2022-08-02T00:30:24;100839.38;;;19.62;62.71
42385;BME280;28042;43.986;22.860;2022-08-02T00:32:50;100838.25;;;19.58;62.89
42385;BME280;28042;43.986;22.860;2022-08-02T00:35:15;100839.66;;;19.61;62.98
42385;BME280;28042;43.986;22.860;2022-08-02T00:37:41;100844.25;;;19.55;63.24
42385;BME280;28042;43.986;22.860;2022-08-02T00:40:07;100835.34;;;19.53;63.30
42385;BME280;28042;43.986;22.860;2022-08-02T00:42:33;100841.25;;;19.57;63.52
42385;BME280;28042;43.986;22.860;2022-08-02T00:44:58;100832.34;;;19.55;63.55
42385;BME280;28042;43.986;22.860;2022-08-02T00:47:23;100832.53;;;19.48;64.07
42385;BME280;28042;43.986;22.860;2022-08-02T00:49:49;100841.31;;;19.45;64.17
42385;BME280;28042;43.986;22.860;2022-08-02T00:52:14;100841.00;;;19.41;64.80
42385;BME280;28042;43.986;22.860;2022-08-02T00:54:39;100828.78;;;19.37;64.73
42385;BME280;28042;43.986;22.860;2022-08-02T00:57:05;100834.22;;;19.32;64.79
42385;BME280;28042;43.986;22.860;2022-08-02T00:59:30;100830.88;;;19.30;65.00
42385;BME280;28042;43.986;22.860;2022-08-02T01:01:55;100837.22;;;19.31;65.03
42385;BME280;28042;43.986;22.860;2022-08-02T01:04:21;100844.09;;;19.28;64.91
42385;BME280;28042;43.986;22.860;2022-08-02T01:06:46;100837.72;;;19.28;65.17
42385;BME280;28042;43.986;22.860;2022-08-02T01:09:12;100838.56;;;19.28;65.17
42385;BME280;28042;43.986;22.860;2022-08-02T01:11:37;100839.66;;;19.27;65.25
42385;BME280;28042;43.986;22.860;2022-08-02T01:14:06;100840.41;;;19.23;64.89
42385;BME280;28042;43.986;22.860;2022-08-02T01:16:35;100848.97;;;19.21;64.98
42385;BME280;28042;43.986;22.860;2022-08-02T01:19:07;100848.97;;;19.21;64.86
42385;BME280;28042;43.986;22.860;2022-08-02T01:21:37;100850.66;;;19.22;64.61
42385;BME280;28042;43.986;22.860;2022-08-02T01:24:29;100835.16;;;19.21;64.65
42385;BME280;28042;43.986;22.860;2022-08-02T01:29:44;100841.66;;;19.15;64.96
42385;BME280;28042;43.986;22.860;2022-08-02T01:32:16;100842.19;;;19.12;65.00
42385;BME280;28042;43.986;22.860;2022-08-02T01:34:48;100849.81;;;19.05;65.32
42385;BME280;28042;43.986;22.860;2022-08-02T01:37:16;100839.22;;;19.02;65.56
42385;BME280;28042;43.986;22.860;2022-08-02T01:39:43;100845.78;;;18.96;65.61
42385;BME280;28042;43.986;22.860;2022-08-02T01:42:10;100848.53;;;18.96;65.43
42385;BME280;28042;43.986;22.860;2022-08-02T01:44:37;100851.13;;;18.85;65.84
42385;BME280;28042;43.986;22.860;2022-08-02T01:47:08;100850.44;;;18.78;65.93
42385;BME280;28042;43.986;22.860;2022-08-02T01:49:35;100852.50;;;18.71;66.27
42385;BME280;28042;43.986;22.860;2022-08-02T01:52:02;100847.97;;;18.65;66.48
42385;BME280;28042;43.986;22.860;2022-08-02T01:54:49;100850.63;;;18.60;66.60
42385;BME280;28042;43.986;22.860;2022-08-02T01:57:16;100855.19;;;18.54;67.03
42385;BME280;28042;43.986;22.860;2022-08-02T01:59:44;100853.78;;;18.52;67.10
42385;BME280;28042;43.986;22.860;2022-08-02T02:02:10;100858.22;;;18.53;66.98
42385;BME280;28042;43.986;22.860;2022-08-02T02:04:38;100859.19;;;18.47;67.36
42385;BME280;28042;43.986;22.860;2022-08-02T02:07:05;100861.00;;;18.41;67.56
42385;BME280;28042;43.986;22.860;2022-08-02T02:09:31;100862.34;;;18.39;67.92
42385;BME280;28042;43.986;22.860;2022-08-02T02:11:59;100864.84;;;18.40;67.82
42385;BME280;28042;43.986;22.860;2022-08-02T02:14:25;100860.91;;;18.36;67.98
42385;BME280;28042;43.986;22.860;2022-08-02T02:16:53;100860.16;;;18.41;67.83
42385;BME280;28042;43.986;22.860;2022-08-02T02:19:19;100860.34;;;18.34;67.86
42385;BME280;28042;43.986;22.860;2022-08-02T02:21:46;100860.81;;;18.31;68.19
42385;BME280;28042;43.986;22.860;2022-08-02T02:24:11;100854.69;;;18.29;68.11
42385;BME280;28042;43.986;22.860;2022-08-02T02:26:37;100854.09;;;18.27;68.38
42385;BME280;28042;43.986;22.860;2022-08-02T02:29:03;100860.47;;;18.27;68.40
42385;BME280;28042;43.986;22.860;2022-08-02T02:31:34;100863.09;;;18.22;68.45
42385;BME280;28042;43.986;22.860;2022-08-02T02:34:04;100864.78;;;18.23;68.51
42385;BME280;28042;43.986;22.860;2022-08-02T02:36:34;100865.41;;;18.25;68.63
42385;BME280;28042;43.986;22.860;2022-08-02T02:39:02;100864.78;;;18.23;68.33
42385;BME280;28042;43.986;22.860;2022-08-02T02:41:27;100866.97;;;18.21;68.25
42385;BME280;28042;43.986;22.860;2022-08-02T02:43:53;100876.81;;;18.17;68.36
42385;BME280;28042;43.986;22.860;2022-08-02T02:46:19;100873.31;;;18.22;68.72
42385;BME280;28042;43.986;22.860;2022-08-02T02:48:46;100870.56;;;18.22;68.68
42385;BME280;28042;43.986;22.860;2022-08-02T02:51:11;100875.16;;;18.16;69.05
42385;BME280;28042;43.986;22.860;2022-08-02T02:53:37;100881.50;;;18.17;69.47
42385;BME280;28042;43.986;22.860;2022-08-02T02:56:02;100879.97;;;18.09;69.90
42385;BME280;28042;43.986;22.860;2022-08-02T02:58:29;100879.38;;;18.07;69.84
42385;BME280;28042;43.986;22.860;2022-08-02T03:00:55;100883.19;;;18.06;70.56
42385;BME280;28042;43.986;22.860;2022-08-02T03:03:39;100882.13;;;18.07;70.47
42385;BME280;28042;43.986;22.860;2022-08-02T03:06:05;100878.75;;;18.05;70.36
42385;BME280;28042;43.986;22.860;2022-08-02T03:08:30;100874.56;;;18.02;70.56
42385;BME280;28042;43.986;22.860;2022-08-02T03:10:56;100881.28;;;18.06;70.45
42385;BME280;28042;43.986;22.860;2022-08-02T03:13:22;100884.28;;;18.05;71.03
42385;BME280;28042;43.986;22.860;2022-08-02T03:15:47;100888.34;;;18.14;70.35
42385;BME280;28042;43.986;22.860;2022-08-02T03:18:33;100891.22;;;18.19;69.97
42385;BME280;28042;43.986;22.860;2022-08-02T03:21:02;100892.44;;;18.12;69.73
42385;BME280;28042;43.986;22.860;2022-08-02T03:23:29;100885.81;;;18.13;69.73
42385;BME280;28042;43.986;22.860;2022-08-02T03:25:54;100888.72;;;18.06;69.90
42385;BME280;28042;43.986;22.860;2022-08-02T03:28:20;100887.78;;;18.00;70.13
42385;BME280;28042;43.986;22.860;2022-08-02T03:30:45;100887.91;;;17.94;70.58
42385;BME280;28042;43.986;22.860;2022-08-02T03:33:10;100889.09;;;17.86;71.09
42385;BME280;28042;43.986;22.860;2022-08-02T03:35:36;100893.66;;;17.80;71.51
42385;BME280;28042;43.986;22.860;2022-08-02T03:38:02;100898.72;;;17.84;71.94
42385;BME280;28042;43.986;22.860;2022-08-02T03:40:29;100900.88;;;17.82;71.90
42385;BME280;28042;43.986;22.860;2022-08-02T03:42:54;100892.47;;;17.76;72.23
42385;BME280;28042;43.986;22.860;2022-08-02T03:45:20;100901.72;;;17.82;72.28
42385;BME280;28042;43.986;22.860;2022-08-02T03:47:46;100899.91;;;17.88;72.44
42385;BME280;28042;43.986;22.860;2022-08-02T03:50:11;100899.66;;;18.01;71.72
42385;BME280;28042;43.986;22.860;2022-08-02T03:52:37;100900.47;;;18.13;71.46
42385;BME280;28042;43.986;22.860;2022-08-02T03:55:04;100899.34;;;18.78;69.47
42385;BME280;28042;43.986;22.860;2022-08-02T03:57:30;100897.91;;;19.54;66.35
42385;BME280;28042;43.986;22.860;2022-08-02T03:59:55;100898.47;;;20.28;63.38
42385;BME280;28042;43.986;22.860;2022-08-02T04:02:20;100907.50;;;21.11;60.29
42385;BME280;28042;43.986;22.860;2022-08-02T04:04:46;100908.19;;;21.98;56.82
42385;BME280;28042;43.986;22.860;2022-08-02T04:07:11;100911.63;;;22.78;54.24
42385;BME280;28042;43.986;22.860;2022-08-02T04:09:36;100913.69;;;23.59;51.59
42385;BME280;28042;43.986;22.860;2022-08-02T04:12:01;100919.25;;;23.94;49.73
42385;BME280;28042;43.986;22.860;2022-08-02T04:14:27;100912.47;;;24.36;48.66
42385;BME280;28042;43.986;22.860;2022-08-02T04:16:56;100916.56;;;25.14;46.64
42385;BME280;28042;43.986;22.860;2022-08-02T04:21:48;100916.13;;;25.99;44.00
42385;BME280;28042;43.986;22.860;2022-08-02T04:24:15;100919.16;;;26.02;42.96
42385;BME280;28042;43.986;22.860;2022-08-02T04:26:42;100914.53;;;26.16;42.66
42385;BME280;28042;43.986;22.860;2022-08-02T04:29:09;100918.41;;;26.20;42.26
42385;BME280;28042;43.986;22.860;2022-08-02T04:31:35;100925.09;;;26.25;42.35
42385;BME280;28042;43.986;22.860;2022-08-02T04:34:01;100922.94;;;26.40;42.03
42385;BME280;28042;43.986;22.860;2022-08-02T04:36:26;100923.88;;;26.31;42.71
42385;BME280;28042;43.986;22.860;2022-08-02T04:38:52;100926.56;;;26.41;42.61
42385;BME280;28042;43.986;22.860;2022-08-02T04:41:18;100924.97;;;26.35;42.68
42385;BME280;28042;43.986;22.860;2022-08-02T04:43:43;100929.47;;;26.07;43.38
42385;BME280;28042;43.986;22.860;2022-08-02T04:46:08;100928.84;;;25.86;43.68
42385;BME280;28042;43.986;22.860;2022-08-02T04:48:34;100932.75;;;25.85;44.14
42385;BME280;28042;43.986;22.860;2022-08-02T04:50:59;100939.69;;;25.92;43.72
42385;BME280;28042;43.986;22.860;2022-08-02T04:53:24;100940.72;;;25.33;45.29
42385;BME280;28042;43.986;22.860;2022-08-02T04:55:50;100939.47;;;25.84;44.24
42385;BME280;28042;43.986;22.860;2022-08-02T04:58:15;100941.13;;;26.14;43.52
42385;BME280;28042;43.986;22.860;2022-08-02T05:00:41;100947.03;;;26.36;43.48
42385;BME280;28042;43.986;22.860;2022-08-02T05:03:06;100950.78;;;26.74;42.87
42385;BME280;28042;43.986;22.860;2022-08-02T05:05:31;100953.84;;;26.97;42.38
42385;BME280;28042;43.986;22.860;2022-08-02T05:07:57;100954.66;;;27.21;41.56
42385;BME280;28042;43.986;22.860;2022-08-02T05:10:23;100970.00;;;27.24;41.65
42385;BME280;28042;43.986;22.860;2022-08-02T05:12:48;100963.22;;;26.87;42.46
42385;BME280;28042;43.986;22.860;2022-08-02T05:15:14;100961.63;;;26.81;42.21
42385;BME280;28042;43.986;22.860;2022-08-02T05:17:42;100967.00;;;26.77;42.32
42385;BME280;28042;43.986;22.860;2022-08-02T05:20:07;100964.66;;;26.85;41.87
42385;BME280;28042;43.986;22.860;2022-08-02T05:22:33;100961.53;;;26.43;42.84
42385;BME280;28042;43.986;22.860;2022-08-02T05:24:58;100968.84;;;26.63;42.91
42385;BME280;28042;43.986;22.860;2022-08-02T05:27:24;100962.44;;;27.24;41.73
42385;BME280;28042;43.986;22.860;2022-08-02T05:29:49;100963.88;;;27.41;41.60
42385;BME280;28042;43.986;22.860;2022-08-02T05:32:16;100962.53;;;27.38;41.46
42385;BME280;28042;43.986;22.860;2022-08-02T05:34:41;100957.06;;;27.47;40.91
42385;BME280;28042;43.986;22.860;2022-08-02T05:37:06;100968.09;;;27.57;40.88
42385;BME280;28042;43.986;22.860;2022-08-02T05:39:32;100965.09;;;27.72;40.84
42385;BME280;28042;43.986;22.860;2022-08-02T05:41:57;100961.41;;;28.04;40.64
42385;BME280;28042;43.986;22.860;2022-08-02T05:44:22;100965.38;;;28.17;40.09
42385;BME280;28042;43.986;22.860;2022-08-02T05:46:48;100963.34;;;28.64;39.26
42385;BME280;28042;43.986;22.860;2022-08-02T05:49:13;100961.59;;;28.68;39.32
42385;BME280;28042;43.986;22.860;2022-08-02T05:51:50;100975.66;;;28.68;38.89
42385;BME280;28042;43.986;22.860;2022-08-02T05:54:18;100971.88;;;28.86;38.64
42385;BME280;28042;43.986;22.860;2022-08-02T05:56:51;100966.72;;;29.30;38.02
42385;BME280;28042;43.986;22.860;2022-08-02T05:59:25;100975.53;;;29.73;36.92
42385;BME280;28042;43.986;22.860;2022-08-02T06:01:54;100971.28;;;29.84;36.35
42385;BME280;28042;43.986;22.860;2022-08-02T06:04:24;100968.63;;;29.57;36.92
42385;BME280;28042;43.986;22.860;2022-08-02T06:06:51;100969.13;;;29.59;36.90
42385;BME280;28042;43.986;22.860;2022-08-02T06:09:19;100985.09;;;29.49;37.04
42385;BME280;28042;43.986;22.860;2022-08-02T06:11:45;100982.94;;;29.69;36.33
42385;BME280;28042;43.986;22.860;2022-08-02T06:14:11;100978.06;;;29.83;36.06
42385;BME280;28042;43.986;22.860;2022-08-02T06:16:37;100978.78;;;30.42;35.00
42385;BME280;28042;43.986;22.860;2022-08-02T06:19:02;100979.41;;;30.08;35.50
42385;BME280;28042;43.986;22.860;2022-08-02T06:21:29;100982.53;;;30.06;35.70
42385;BME280;28042;43.986;22.860;2022-08-02T06:23:54;100985.59;;;30.19;35.52
42385;BME280;28042;43.986;22.860;2022-08-02T06:26:22;100982.44;;;30.51;34.58
42385;BME280;28042;43.986;22.860;2022-08-02T06:28:48;100988.09;;;29.75;35.29
42385;BME280;28042;43.986;22.860;2022-08-02T06:31:15;100991.22;;;29.02;37.31
42385;BME280;28042;43.986;22.860;2022-08-02T06:33:41;100988.47;;;29.24;36.43
42385;BME280;28042;43.986;22.860;2022-08-02T06:38:42;100990.47;;;29.60;35.95
42385;BME280;28042;43.986;22.860;2022-08-02T06:41:08;100998.25;;;29.26;36.43
42385;BME280;28042;43.986;22.860;2022-08-02T06:43:46;101006.50;;;28.54;38.40
42385;BME280;28042;43.986;22.860;2022-08-02T06:46:14;101001.69;;;27.95;39.64
42385;BME280;28042;43.986;22.860;2022-08-02T06:48:39;100995.63;;;27.74;40.37
42385;BME280;28042;43.986;22.860;2022-08-02T06:51:05;101000.06;;;27.56;41.03
42385;BME280;28042;43.986;22.860;2022-08-02T06:53:30;100997.41;;;27.08;42.32
42385;BME280;28042;43.986;22.860;2022-08-02T06:55:56;100995.03;;;26.96;41.74
42385;BME280;28042;43.986;22.860;2022-08-02T06:58:21;100997.13;;;27.28;41.99
42385;BME280;28042;43.986;22.860;2022-08-02T07:00:47;100992.88;;;27.12;41.98
42385;BME280;28042;43.986;22.860;2022-08-02T07:03:12;100992.59;;;26.90;43.38
42385;BME280;28042;43.986;22.860;2022-08-02T07:05:38;101000.31;;;26.98;42.25
42385;BME280;28042;43.986;22.860;2022-08-02T07:08:04;100996.03;;;26.82;42.71
42385;BME280;28042;43.986;22.860;2022-08-02T07:10:29;100991.28;;;26.58;43.09
42385;BME280;28042;43.986;22.860;2022-08-02T07:12:54;100996.56;;;26.36;43.98
42385;BME280;28042;43.986;22.860;2022-08-02T07:15:20;100995.22;;;26.81;42.88
42385;BME280;28042;43.986;22.860;2022-08-02T07:17:45;101001.88;;;27.09;41.89
42385;BME280;28042;43.986;22.860;2022-08-02T07:20:11;100992.63;;;27.27;41.83
42385;BME280;28042;43.986;22.860;2022-08-02T07:22:37;100992.34;;;27.48;41.32
42385;BME280;28042;43.986;22.860;2022-08-02T07:25:03;100993.34;;;27.38;41.11
42385;BME280;28042;43.986;22.860;2022-08-02T07:27:29;100992.03;;;27.68;41.13
42385;BME280;28042;43.986;22.860;2022-08-02T07:29:54;100993.78;;;27.64;40.96
42385;BME280;28042;43.986;22.860;2022-08-02T07:32:21;100991.34;;;27.76;40.36
42385;BME280;28042;43.986;22.860;2022-08-02T07:34:47;100984.03;;;27.94;40.59
42385;BME280;28042;43.986;22.860;2022-08-02T07:37:13;100977.41;;;28.04;39.95
42385;BME280;28042;43.986;22.860;2022-08-02T07:39:38;100980.47;;;27.88;39.98
42385;BME280;28042;43.986;22.860;2022-08-02T07:42:04;100983.63;;;28.01;39.83
42385;BME280;28042;43.986;22.860;2022-08-02T07:44:29;100981.09;;;27.85;40.13
42385;BME280;28042;43.986;22.860;2022-08-02T07:47:01;100978.03;;;28.01;39.86
42385;BME280;28042;43.986;22.860;2022-08-02T07:49:27;100970.81;;;28.27;40.35
42385;BME280;28042;43.986;22.860;2022-08-02T07:51:53;100976.88;;;28.34;40.14
42385;BME280;28042;43.986;22.860;2022-08-02T07:54:19;100972.28;;;28.38;40.12
42385;BME280;28042;43.986;22.860;2022-08-02T07:56:44;100982.47;;;28.76;38.91
42385;BME280;28042;43.986;22.860;2022-08-02T07:59:09;100967.09;;;28.87;38.39
42385;BME280;28042;43.986;22.860;2022-08-02T08:01:35;100967.31;;;28.90;38.85
42385;BME280;28042;43.986;22.860;2022-08-02T08:04:01;100970.44;;;29.03;38.40
42385;BME280;28042;43.986;22.860;2022-08-02T08:06:26;100969.81;;;28.92;37.90
42385;BME280;28042;43.986;22.860;2022-08-02T08:08:51;100967.72;;;28.97;37.80
42385;BME280;28042;43.986;22.860;2022-08-02T08:11:17;100959.59;;;28.82;37.76
42385;BME280;28042;43.986;22.860;2022-08-02T08:13:42;100976.84;;;28.76;37.88
42385;BME280;28042;43.986;22.860;2022-08-02T08:16:07;100966.88;;;28.83;38.10
42385;BME280;28042;43.986;22.860;2022-08-02T08:18:33;100963.75;;;28.98;37.48
42385;BME280;28042;43.986;22.860;2022-08-02T08:20:58;100966.16;;;29.27;37.44
42385;BME280;28042;43.986;22.860;2022-08-02T08:23:24;100967.03;;;29.28;36.87
42385;BME280;28042;43.986;22.860;2022-08-02T08:25:49;100959.53;;;29.23;36.37
42385;BME280;28042;43.986;22.860;2022-08-02T08:28:15;100965.56;;;28.94;36.95
42385;BME280;28042;43.986;22.860;2022-08-02T08:30:40;100951.69;;;28.84;37.60
42385;BME280;28042;43.986;22.860;2022-08-02T08:33:08;100960.31;;;29.02;36.74
42385;BME280;28042;43.986;22.860;2022-08-02T08:35:34;100961.00;;;29.21;36.82
42385;BME280;28042;43.986;22.860;2022-08-02T08:37:59;100959.72;;;29.27;35.40
42385;BME280;28042;43.986;22.860;2022-08-02T08:40:24;100969.94;;;29.23;35.24
42385;BME280;28042;43.986;22.860;2022-08-02T08:42:50;100957.59;;;29.10;35.62
42385;BME280;28042;43.986;22.860;2022-08-02T08:45:15;100956.00;;;29.18;35.26
42385;BME280;28042;43.986;22.860;2022-08-02T08:47:42;100960.88;;;29.26;35.65
42385;BME280;28042;43.986;22.860;2022-08-02T08:50:08;100957.81;;;29.36;35.54
42385;BME280;28042;43.986;22.860;2022-08-02T08:52:57;100956.56;;;29.42;34.85
42385;BME280;28042;43.986;22.860;2022-08-02T08:55:23;100958.63;;;29.50;34.37
42385;BME280;28042;43.986;22.860;2022-08-02T08:57:53;100951.59;;;29.62;35.06
42385;BME280;28042;43.986;22.860;2022-08-02T09:00:18;100957.88;;;29.59;33.78
42385;BME280;28042;43.986;22.860;2022-08-02T09:02:44;100953.00;;;29.50;34.17
42385;BME280;28042;43.986;22.860;2022-08-02T09:05:11;100952.75;;;29.61;33.44
42385;BME280;28042;43.986;22.860;2022-08-02T09:07:37;100944.59;;;29.73;33.19
42385;BME280;28042;43.986;22.860;2022-08-02T09:12:54;100951.88;;;29.74;33.73
42385;BME280;28042;43.986;22.860;2022-08-02T09:15:29;100950.47;;;29.63;33.60
42385;BME280;28042;43.986;22.860;2022-08-02T09:17:55;100940.13;;;29.72;33.38
42385;BME280;28042;43.986;22.860;2022-08-02T09:20:20;100930.81;;;29.94;33.73
42385;BME280;28042;43.986;22.860;2022-08-02T09:22:46;100937.31;;;30.34;32.55
42385;BME280;28042;43.986;22.860;2022-08-02T09:25:29;100935.00;;;30.36;32.24
42385;BME280;28042;43.986;22.860;2022-08-02T09:27:55;100934.97;;;30.27;31.25
42385;BME280;28042;43.986;22.860;2022-08-02T09:30:20;100935.53;;;30.07;31.88
42385;BME280;28042;43.986;22.860;2022-08-02T09:32:46;100931.13;;;29.92;31.85
42385;BME280;28042;43.986;22.860;2022-08-02T09:35:12;100932.91;;;30.10;31.33
42385;BME280;28042;43.986;22.860;2022-08-02T09:37:39;100932.97;;;29.97;31.70
42385;BME280;28042;43.986;22.860;2022-08-02T09:40:04;100927.38;;;30.05;32.06
42385;BME280;28042;43.986;22.860;2022-08-02T09:42:30;100926.72;;;29.77;32.12
42385;BME280;28042;43.986;22.860;2022-08-02T09:44:58;100918.59;;;29.98;31.93
42385;BME280;28042;43.986;22.860;2022-08-02T09:47:24;100928.53;;;30.04;31.24
42385;BME280;28042;43.986;22.860;2022-08-02T09:49:50;100923.19;;;30.17;32.33
42385;BME280;28042;43.986;22.860;2022-08-02T09:52:20;100921.19;;;30.17;31.18
42385;BME280;28042;43.986;22.860;2022-08-02T09:54:46;100918.78;;;30.33;31.03
42385;BME280;28042;43.986;22.860;2022-08-02T09:57:11;100916.66;;;30.47;30.83
42385;BME280;28042;43.986;22.860;2022-08-02T09:59:52;100915.44;;;30.31;31.30
42385;BME280;28042;43.986;22.860;2022-08-02T10:02:18;100917.47;;;30.39;31.11
42385;BME280;28042;43.986;22.860;2022-08-02T10:04:44;100911.59;;;30.66;31.37
42385;BME280;28042;43.986;22.860;2022-08-02T10:07:09;100910.66;;;30.97;30.08
42385;BME280;28042;43.986;22.860;2022-08-02T10:09:34;100909.34;;;31.03;30.59
42385;BME280;28042;43.986;22.860;2022-08-02T10:12:00;100914.16;;;31.03;29.70
42385;BME280;28042;43.986;22.860;2022-08-02T10:14:25;100908.50;;;30.85;29.97
42385;BME280;28042;43.986;22.860;2022-08-02T10:16:51;100901.38;;;30.88;29.80
42385;BME280;28042;43.986;22.860;2022-08-02T10:19:18;100907.50;;;30.99;29.82
42385;BME280;28042;43.986;22.860;2022-08-02T10:21:44;100900.34;;;30.84;30.01
42385;BME280;28042;43.986;22.860;2022-08-02T10:26:37;100893.09;;;31.00;29.39
42385;BME280;28042;43.986;22.860;2022-08-02T10:29:03;100895.59;;;31.19;29.25
42385;BME280;28042;43.986;22.860;2022-08-02T10:31:40;100891.78;;;31.23;28.97
42385;BME280;28042;43.986;22.860;2022-08-02T10:34:08;100877.66;;;31.15;29.61
42385;BME280;28042;43.986;22.860;2022-08-02T10:36:34;100875.19;;;31.13;29.67
42385;BME280;28042;43.986;22.860;2022-08-02T10:39:01;100874.03;;;30.88;29.68
42385;BME280;28042;43.986;22.860;2022-08-02T10:41:46;100885.16;;;31.02;29.42
42385;BME280;28042;43.986;22.860;2022-08-02T10:44:22;100882.81;;;31.04;29.14
42385;BME280;28042;43.986;22.860;2022-08-02T10:46:47;100874.84;;;31.06;29.04
42385;BME280;28042;43.986;22.860;2022-08-02T10:49:13;100876.72;;;31.37;28.86
42385;BME280;28042;43.986;22.860;2022-08-02T10:54:25;100868.72;;;31.04;28.76
42385;BME280;28042;43.986;22.860;2022-08-02T10:56:51;100864.63;;;31.28;28.85
42385;BME280;28042;43.986;22.860;2022-08-02T11:01:49;100866.22;;;31.55;28.01
42385;BME280;28042;43.986;22.860;2022-08-02T11:04:14;100862.34;;;31.85;27.46
42385;BME280;28042;43.986;22.860;2022-08-02T11:09:26;100854.13;;;31.54;27.97
42385;BME280;28042;43.986;22.860;2022-08-02T11:12:02;100846.03;;;31.99;28.25
42385;BME280;28042;43.986;22.860;2022-08-02T11:14:28;100843.06;;;32.25;27.11
42385;BME280;28042;43.986;22.860;2022-08-02T11:19:25;100849.69;;;31.91;27.56
42385;BME280;28042;43.986;22.860;2022-08-02T11:22:01;100843.75;;;31.75;28.11
42385;BME280;28042;43.986;22.860;2022-08-02T11:24:28;100841.13;;;31.62;27.93
42385;BME280;28042;43.986;22.860;2022-08-02T11:26:54;100844.28;;;31.60;27.41
42385;BME280;28042;43.986;22.860;2022-08-02T11:29:20;100836.16;;;31.76;27.74
42385;BME280;28042;43.986;22.860;2022-08-02T11:31:45;100826.31;;;31.91;27.45
42385;BME280;28042;43.986;22.860;2022-08-02T11:34:11;100832.25;;;32.27;26.79
42385;BME280;28042;43.986;22.860;2022-08-02T11:36:49;100826.53;;;32.15;26.74
42385;BME280;28042;43.986;22.860;2022-08-02T11:39:16;100832.94;;;32.54;26.22
42385;BME280;28042;43.986;22.860;2022-08-02T11:41:46;100830.38;;;32.02;26.19
42385;BME280;28042;43.986;22.860;2022-08-02T11:44:12;100828.16;;;31.69;25.78
42385;BME280;28042;43.986;22.860;2022-08-02T11:46:37;100826.69;;;31.81;25.88
42385;BME280;28042;43.986;22.860;2022-08-02T11:49:13;100821.09;;;32.01;25.84
42385;BME280;28042;43.986;22.860;2022-08-02T11:51:49;100832.28;;;32.19;25.81
42385;BME280;28042;43.986;22.860;2022-08-02T11:54:14;100823.94;;;32.31;25.35
42385;BME280;28042;43.986;22.860;2022-08-02T11:56:46;100821.06;;;32.40;25.59
42385;BME280;28042;43.986;22.860;2022-08-02T11:59:11;100827.00;;;32.47;27.11
42385;BME280;28042;43.986;22.860;2022-08-02T12:01:37;100829.06;;;32.38;27.25
42385;BME280;28042;43.986;22.860;2022-08-02T12:04:03;100813.63;;;32.35;22.62
42385;BME280;28042;43.986;22.860;2022-08-02T12:06:29;100821.09;;;32.60;25.54
42385;BME280;28042;43.986;22.860;2022-08-02T12:08:58;100820.69;;;32.50;25.42
42385;BME280;28042;43.986;22.860;2022-08-02T12:11:26;100816.00;;;32.54;22.48
42385;BME280;28042;43.986;22.860;2022-08-02T12:13:51;100813.28;;;32.87;24.48
42385;BME280;28042;43.986;22.860;2022-08-02T12:16:17;100811.16;;;32.75;25.82
42385;BME280;28042;43.986;22.860;2022-08-02T12:19:12;100800.34;;;32.77;25.36
42385;BME280;28042;43.986;22.860;2022-08-02T12:21:44;100813.72;;;32.68;23.67
42385;BME280;28042;43.986;22.860;2022-08-02T12:24:10;100805.50;;;32.75;22.64
42385;BME280;28042;43.986;22.860;2022-08-02T12:26:45;100815.78;;;33.01;25.16
42385;BME280;28042;43.986;22.860;2022-08-02T12:29:10;100812.69;;;33.14;22.58
42385;BME280;28042;43.986;22.860;2022-08-02T12:31:43;100801.03;;;33.16;21.00
42385;BME280;28042;43.986;22.860;2022-08-02T12:34:16;100809.75;;;33.23;20.87
42385;BME280;28042;43.986;22.860;2022-08-02T12:36:43;100795.16;;;33.21;20.76
42385;BME280;28042;43.986;22.860;2022-08-02T12:39:12;100798.94;;;33.58;20.37
42385;BME280;28042;43.986;22.860;2022-08-02T12:41:38;100797.59;;;33.43;20.33
42385;BME280;28042;43.986;22.860;2022-08-02T12:44:03;100782.78;;;33.59;19.49
42385;BME280;28042;43.986;22.860;2022-08-02T12:46:29;100789.03;;;33.77;19.97
42385;BME280;28042;43.986;22.860;2022-08-02T12:48:56;100788.44;;;33.59;19.71
42385;BME280;28042;43.986;22.860;2022-08-02T12:51:22;100787.16;;;33.35;19.69
42385;BME280;28042;43.986;22.860;2022-08-02T12:53:48;100786.31;;;33.23;19.96
42385;BME280;28042;43.986;22.860;2022-08-02T12:56:25;100790.53;;;33.37;21.23
42385;BME280;28042;43.986;22.860;2022-08-02T12:58:51;100777.00;;;33.55;20.61
42385;BME280;28042;43.986;22.860;2022-08-02T13:01:20;100774.88;;;33.64;20.56
42385;BME280;28042;43.986;22.860;2022-08-02T13:03:46;100778.19;;;33.54;21.03